sensor_id;sensor_type;location;lat;lon;timestamp;pressure;altitude;pressure_sealevel;temperature;humidity
76605;BME280;65496;50.978;16.998;2023-03-11T00:00:21;97366.31;;;21.75;32.76
76605;BME280;65496;50.978;16.998;2023-03-11T00:03:08;97379.66;;;21.77;32.74
76605;BME280;65496;50.978;16.998;2023-03-11T00:05:36;97363.13;;;21.77;32.90
76605;BME280;65496;50.978;16.998;2023-03-11T00:08:04;97367.09;;;21.76;32.64
76605;BME280;65496;50.978;16.998;2023-03-11T00:10:33;97369.84;;;21.76;32.80
76605;BME280;65496;50.978;16.998;2023-03-11T00:13:00;97375.34;;;21.76;32.59
76605;BME280;65496;50.978;16.998;2023-03-11T00:15:27;97377.69;;;21.77;32.63
76605;BME280;65496;50.978;16.998;2023-03-11T00:17:54;97368.63;;;21.77;32.56
76605;BME280;65496;50.978;16.998;2023-03-11T00:20:27;97376.13;;;21.76;32.70
76605;BME280;65496;50.978;16.998;2023-03-11T00:22:53;97383.19;;;21.77;32.70
76605;BME280;65496;50.978;16.998;2023-03-11T00:25:21;97374.56;;;21.75;32.73
76605;BME280;65496;50.978;16.998;2023-03-11T00:27:47;97383.59;;;21.76;32.75
76605;BME280;65496;50.978;16.998;2023-03-11T00:30:14;97381.72;;;21.73;32.75
76605;BME280;65496;50.978;16.998;2023-03-11T00:32:40;97392.19;;;21.78;32.70
76605;BME280;65496;50.978;16.998;2023-03-11T00:35:07;97383.19;;;21.77;32.41
76605;BME280;65496;50.978;16.998;2023-03-11T00:37:33;97394.63;;;21.76;32.67
76605;BME280;65496;50.978;16.998;2023-03-11T00:39:59;97389.13;;;21.76;32.68
76605;BME280;65496;50.978;16.998;2023-03-11T00:42:25;97387.91;;;21.77;32.52
76605;BME280;65496;50.978;16.998;2023-03-11T00:44:51;97385.16;;;21.77;32.59
76605;BME280;65496;50.978;16.998;2023-03-11T00:47:17;97386.03;;;21.74;32.58
76605;BME280;65496;50.978;16.998;2023-03-11T00:49:44;97377.75;;;21.74;32.51
76605;BME280;65496;50.978;16.998;2023-03-11T00:52:10;97381.25;;;21.74;32.60
76605;BME280;65496;50.978;16.998;2023-03-11T00:54:36;97387.13;;;21.76;32.41
76605;BME280;65496;50.978;16.998;2023-03-11T00:57:02;97382.81;;;21.75;32.64
76605;BME280;65496;50.978;16.998;2023-03-11T00:59:29;97383.59;;;21.76;32.55
76605;BME280;65496;50.978;16.998;2023-03-11T01:01:54;97380.50;;;21.74;32.45
76605;BME280;65496;50.978;16.998;2023-03-11T01:04:21;97377.41;;;21.72;32.50
76605;BME280;65496;50.978;16.998;2023-03-11T01:06:46;97376.53;;;21.75;32.51
76605;BME280;65496;50.978;16.998;2023-03-11T01:09:13;97376.53;;;21.75;32.41
76605;BME280;65496;50.978;16.998;2023-03-11T01:11:38;97382.41;;;21.77;32.43
76605;BME280;65496;50.978;16.998;2023-03-11T01:14:05;97382.81;;;21.75;32.41
76605;BME280;65496;50.978;16.998;2023-03-11T01:16:30;97385.56;;;21.75;32.46
76605;BME280;65496;50.978;16.998;2023-03-11T01:18:57;97384.81;;;21.75;32.48
76605;BME280;65496;50.978;16.998;2023-03-11T01:21:23;97384.81;;;21.75;32.46
76605;BME280;65496;50.978;16.998;2023-03-11T01:23:49;97388.34;;;21.75;32.42
76605;BME280;65496;50.978;16.998;2023-03-11T01:26:15;97380.50;;;21.74;32.38
76605;BME280;65496;50.978;16.998;2023-03-11T01:28:41;97385.56;;;21.75;32.30
76605;BME280;65496;50.978;16.998;2023-03-11T01:31:08;97389.97;;;21.73;32.39
76605;BME280;65496;50.978;16.998;2023-03-11T01:33:35;97389.53;;;21.74;32.43
76605;BME280;65496;50.978;16.998;2023-03-11T01:36:01;97390.75;;;21.73;32.50
76605;BME280;65496;50.978;16.998;2023-03-11T01:38:27;97389.53;;;21.74;32.37
76605;BME280;65496;50.978;16.998;2023-03-11T01:40:53;97391.53;;;21.74;32.49
76605;BME280;65496;50.978;16.998;2023-03-11T01:49:08;97401.00;;;21.73;32.35
76605;BME280;65496;50.978;16.998;2023-03-11T01:51:37;97394.28;;;21.74;32.60
76605;BME280;65496;50.978;16.998;2023-03-11T01:54:10;97396.69;;;21.72;32.28
76605;BME280;65496;50.978;16.998;2023-03-11T01:56:38;97398.22;;;21.73;32.05
76605;BME280;65496;50.978;16.998;2023-03-11T01:59:06;97389.97;;;21.73;32.57
76605;BME280;65496;50.978;16.998;2023-03-11T02:01:33;97386.44;;;21.72;32.40
76605;BME280;65496;50.978;16.998;2023-03-11T02:04:02;97382.91;;;21.72;32.58
76605;BME280;65496;50.978;16.998;2023-03-11T02:06:30;97380.16;;;21.72;32.55
76605;BME280;65496;50.978;16.998;2023-03-11T02:08:58;97386.44;;;21.72;32.49
76605;BME280;65496;50.978;16.998;2023-03-11T02:11:27;97388.41;;;21.72;32.53
76605;BME280;65496;50.978;16.998;2023-03-11T02:13:58;97387.63;;;21.71;32.37
76605;BME280;65496;50.978;16.998;2023-03-11T02:16:26;97384.09;;;21.71;32.38
76605;BME280;65496;50.978;16.998;2023-03-11T02:18:52;97391.16;;;21.72;32.50
76605;BME280;65496;50.978;16.998;2023-03-11T02:21:25;97401.41;;;21.71;32.45
76605;BME280;65496;50.978;16.998;2023-03-11T02:24:07;97404.16;;;21.71;32.59
76605;BME280;65496;50.978;16.998;2023-03-11T02:27:05;97395.13;;;21.71;32.46
76605;BME280;65496;50.978;16.998;2023-03-11T02:29:32;97391.16;;;21.72;32.50
76605;BME280;65496;50.978;16.998;2023-03-11T02:32:02;97387.28;;;21.69;32.35
76605;BME280;65496;50.978;16.998;2023-03-11T02:34:31;97385.31;;;21.70;32.44
76605;BME280;65496;50.978;16.998;2023-03-11T02:36:58;97384.53;;;21.69;32.47
76605;BME280;65496;50.978;16.998;2023-03-11T02:39:29;97388.06;;;21.70;32.47
76605;BME280;65496;50.978;16.998;2023-03-11T02:41:55;97386.50;;;21.69;32.39
76605;BME280;65496;50.978;16.998;2023-03-11T02:44:21;97381.78;;;21.69;32.38
76605;BME280;65496;50.978;16.998;2023-03-11T02:46:47;97378.25;;;21.69;32.51
76605;BME280;65496;50.978;16.998;2023-03-11T02:49:14;97378.25;;;21.69;32.46
76605;BME280;65496;50.978;16.998;2023-03-11T02:51:40;97382.97;;;21.68;32.52
76605;BME280;65496;50.978;16.998;2023-03-11T02:54:06;97392.09;;;21.65;32.68
76605;BME280;65496;50.978;16.998;2023-03-11T02:56:32;97395.97;;;21.68;32.58
76605;BME280;65496;50.978;16.998;2023-03-11T02:58:58;97392.44;;;21.67;32.53
76605;BME280;65496;50.978;16.998;2023-03-11T03:01:24;97400.28;;;21.69;32.51
76605;BME280;65496;50.978;16.998;2023-03-11T03:03:50;97401.47;;;21.68;32.63
76605;BME280;65496;50.978;16.998;2023-03-11T03:06:16;97395.97;;;21.68;32.30
76605;BME280;65496;50.978;16.998;2023-03-11T03:08:42;97403.03;;;21.69;32.48
76605;BME280;65496;50.978;16.998;2023-03-11T03:11:08;97404.22;;;21.68;32.44
76605;BME280;65496;50.978;16.998;2023-03-11T03:13:34;97427.13;;;21.65;32.42
76605;BME280;65496;50.978;16.998;2023-03-11T03:16:01;97456.56;;;21.68;32.52
76605;BME280;65496;50.978;16.998;2023-03-11T03:18:29;97478.59;;;21.68;32.41
76605;BME280;65496;50.978;16.998;2023-03-11T03:20:55;97480.91;;;21.69;32.11
76605;BME280;65496;50.978;16.998;2023-03-11T03:23:22;97482.44;;;21.70;32.53
76605;BME280;65496;50.978;16.998;2023-03-11T03:25:48;97467.34;;;21.59;32.21
76605;BME280;65496;50.978;16.998;2023-03-11T03:28:14;97479.38;;;21.68;32.08
76605;BME280;65496;50.978;16.998;2023-03-11T03:30:41;97489.97;;;21.70;32.15
76605;BME280;65496;50.978;16.998;2023-03-11T03:33:08;97497.44;;;21.69;31.97
76605;BME280;65496;50.978;16.998;2023-03-11T03:35:34;97497.94;;;21.64;32.11
76605;BME280;65496;50.978;16.998;2023-03-11T03:38:00;97503.03;;;21.66;31.88
76605;BME280;65496;50.978;16.998;2023-03-11T03:40:26;97496.81;;;21.62;32.03
76605;BME280;65496;50.978;16.998;2023-03-11T03:42:53;97512.41;;;21.68;31.75
76605;BME280;65496;50.978;16.998;2023-03-11T03:45:19;97506.91;;;21.68;31.88
76605;BME280;65496;50.978;16.998;2023-03-11T03:47:45;97523.00;;;21.70;31.70
76605;BME280;65496;50.978;16.998;2023-03-11T03:50:11;97518.69;;;21.69;31.78
76605;BME280;65496;50.978;16.998;2023-03-11T03:52:40;97533.25;;;21.69;31.81
76605;BME280;65496;50.978;16.998;2023-03-11T03:55:06;97519.53;;;21.66;31.75
76605;BME280;65496;50.978;16.998;2023-03-11T03:57:33;97539.94;;;21.68;31.60
76605;BME280;65496;50.978;16.998;2023-03-11T03:59:59;97545.44;;;21.68;31.55
76605;BME280;65496;50.978;16.998;2023-03-11T04:02:25;97544.66;;;21.68;31.52
76605;BME280;65496;50.978;16.998;2023-03-11T04:04:51;97545.44;;;21.68;31.60
76605;BME280;65496;50.978;16.998;2023-03-11T04:07:17;97540.78;;;21.65;31.45
76605;BME280;65496;50.978;16.998;2023-03-11T04:09:43;97550.19;;;21.68;31.53
76605;BME280;65496;50.978;16.998;2023-03-11T04:12:13;97552.94;;;21.68;31.45
76605;BME280;65496;50.978;16.998;2023-03-11T04:14:40;97563.16;;;21.67;31.31
76605;BME280;65496;50.978;16.998;2023-03-11T04:17:09;97556.88;;;21.67;31.31
76605;BME280;65496;50.978;16.998;2023-03-11T04:19:35;97555.41;;;21.62;31.33
76605;BME280;65496;50.978;16.998;2023-03-11T04:22:01;97561.63;;;21.66;31.27
76605;BME280;65496;50.978;16.998;2023-03-11T04:24:27;97560.06;;;21.65;31.55
76605;BME280;65496;50.978;16.998;2023-03-11T04:26:53;97564.41;;;21.63;31.44
76605;BME280;65496;50.978;16.998;2023-03-11T04:29:19;97561.72;;;21.59;31.46
76605;BME280;65496;50.978;16.998;2023-03-11T04:31:45;97575.81;;;21.65;31.19
76605;BME280;65496;50.978;16.998;2023-03-11T04:34:11;97561.66;;;21.63;31.18
76605;BME280;65496;50.978;16.998;2023-03-11T04:36:38;97562.09;;;21.61;31.38
76605;BME280;65496;50.978;16.998;2023-03-11T04:39:04;97583.28;;;21.64;31.10
76605;BME280;65496;50.978;16.998;2023-03-11T04:41:30;97563.06;;;21.51;31.11
76605;BME280;65496;50.978;16.998;2023-03-11T04:43:58;97592.03;;;21.59;31.10
76605;BME280;65496;50.978;16.998;2023-03-11T04:46:27;97599.88;;;21.61;30.96
76605;BME280;65496;50.978;16.998;2023-03-11T04:48:53;97604.97;;;21.62;31.04
76605;BME280;65496;50.978;16.998;2023-03-11T04:51:19;97603.75;;;21.63;31.11
76605;BME280;65496;50.978;16.998;2023-03-11T04:53:45;97606.16;;;21.61;31.16
76605;BME280;65496;50.978;16.998;2023-03-11T04:56:11;97615.19;;;21.62;30.99
76605;BME280;65496;50.978;16.998;2023-03-11T04:58:37;97606.94;;;21.62;30.88
76605;BME280;65496;50.978;16.998;2023-03-11T05:01:03;97604.78;;;21.50;30.83
76605;BME280;65496;50.978;16.998;2023-03-11T05:03:29;97629.38;;;21.60;30.83
76605;BME280;65496;50.978;16.998;2023-03-11T05:05:55;97626.63;;;21.60;30.88
76605;BME280;65496;50.978;16.998;2023-03-11T05:08:22;97625.13;;;21.56;30.94
76605;BME280;65496;50.978;16.998;2023-03-11T05:10:50;97638.41;;;21.61;30.86
76605;BME280;65496;50.978;16.998;2023-03-11T05:13:18;97637.63;;;21.60;31.05
76605;BME280;65496;50.978;16.998;2023-03-11T05:15:47;97643.22;;;21.57;31.07
76605;BME280;65496;50.978;16.998;2023-03-11T05:18:14;97649.84;;;21.59;30.80
76605;BME280;65496;50.978;16.998;2023-03-11T05:20:40;97645.66;;;21.51;30.84
76605;BME280;65496;50.978;16.998;2023-03-11T05:23:06;97652.59;;;21.59;30.59
76605;BME280;65496;50.978;16.998;2023-03-11T05:25:33;97666.81;;;21.58;30.61
76605;BME280;65496;50.978;16.998;2023-03-11T05:28:00;97664.03;;;21.58;30.66
76605;BME280;65496;50.978;16.998;2023-03-11T05:30:26;97678.59;;;21.58;30.70
76605;BME280;65496;50.978;16.998;2023-03-11T05:32:52;97677.44;;;21.56;30.58
76605;BME280;65496;50.978;16.998;2023-03-11T05:35:18;97671.53;;;21.57;30.80
76605;BME280;65496;50.978;16.998;2023-03-11T05:37:45;97677.81;;;21.58;30.57
76605;BME280;65496;50.978;16.998;2023-03-11T05:40:14;97681.75;;;21.57;30.48
76605;BME280;65496;50.978;16.998;2023-03-11T05:42:40;97688.44;;;21.56;30.50
76605;BME280;65496;50.978;16.998;2023-03-11T05:45:08;97688.88;;;21.54;30.46
76605;BME280;65496;50.978;16.998;2023-03-11T05:47:34;97685.69;;;21.56;30.50
76605;BME280;65496;50.978;16.998;2023-03-11T05:50:00;97703.44;;;21.55;30.51
76605;BME280;65496;50.978;16.998;2023-03-11T05:52:26;97704.97;;;21.56;30.28
76605;BME280;65496;50.978;16.998;2023-03-11T05:54:52;97706.94;;;21.55;30.24
76605;BME280;65496;50.978;16.998;2023-03-11T05:57:18;97700.31;;;21.53;30.23
76605;BME280;65496;50.978;16.998;2023-03-11T05:59:45;97711.69;;;21.55;30.23
76605;BME280;65496;50.978;16.998;2023-03-11T06:02:11;97715.97;;;21.56;30.59
76605;BME280;65496;50.978;16.998;2023-03-11T06:04:37;97720.72;;;21.55;30.60
76605;BME280;65496;50.978;16.998;2023-03-11T06:07:03;97720.72;;;21.55;30.49
76605;BME280;65496;50.978;16.998;2023-03-11T06:09:30;97722.72;;;21.55;30.25
76605;BME280;65496;50.978;16.998;2023-03-11T06:11:55;97725.47;;;21.55;30.41
76605;BME280;65496;50.978;16.998;2023-03-11T06:14:22;97732.16;;;21.54;30.36
76605;BME280;65496;50.978;16.998;2023-03-11T06:16:48;97723.91;;;21.54;30.18
76605;BME280;65496;50.978;16.998;2023-03-11T06:19:14;97741.97;;;21.55;30.07
76605;BME280;65496;50.978;16.998;2023-03-11T06:21:40;97739.22;;;21.55;30.54
76605;BME280;65496;50.978;16.998;2023-03-11T06:24:06;97751.44;;;21.54;30.26
76605;BME280;65496;50.978;16.998;2023-03-11T06:26:32;97758.91;;;21.53;30.36
76605;BME280;65496;50.978;16.998;2023-03-11T06:28:58;97744.00;;;21.51;30.20
76605;BME280;65496;50.978;16.998;2023-03-11T06:31:26;97763.63;;;21.53;30.37
76605;BME280;65496;50.978;16.998;2023-03-11T06:33:53;97766.38;;;21.53;29.97
76605;BME280;65496;50.978;16.998;2023-03-11T06:36:20;97772.66;;;21.53;30.21
76605;BME280;65496;50.978;16.998;2023-03-11T06:38:47;97776.59;;;21.52;30.30
76605;BME280;65496;50.978;16.998;2023-03-11T06:41:15;97782.91;;;21.53;30.50
76605;BME280;65496;50.978;16.998;2023-03-11T06:43:41;97790.03;;;21.50;30.30
76605;BME280;65496;50.978;16.998;2023-03-11T06:46:13;97793.13;;;21.52;30.34
76605;BME280;65496;50.978;16.998;2023-03-11T06:48:40;97804.16;;;21.52;30.46
76605;BME280;65496;50.978;16.998;2023-03-11T06:51:06;97800.25;;;21.50;30.48
76605;BME280;65496;50.978;16.998;2023-03-11T06:53:33;97810.84;;;21.51;30.37
76605;BME280;65496;50.978;16.998;2023-03-11T06:56:18;97821.09;;;21.51;30.30
76605;BME280;65496;50.978;16.998;2023-03-11T06:58:44;97825.81;;;21.50;30.47
76605;BME280;65496;50.978;16.998;2023-03-11T07:01:19;97828.56;;;21.50;30.31
76605;BME280;65496;50.978;16.998;2023-03-11T07:03:47;97836.03;;;21.50;30.66
76605;BME280;65496;50.978;16.998;2023-03-11T07:06:17;97849.03;;;21.49;30.28
76605;BME280;65496;50.978;16.998;2023-03-11T07:08:46;97842.00;;;21.45;30.43
76605;BME280;65496;50.978;16.998;2023-03-11T07:11:18;97853.75;;;21.49;30.58
76605;BME280;65496;50.978;16.998;2023-03-11T07:13:44;97836.44;;;21.48;30.68
76605;BME280;65496;50.978;16.998;2023-03-11T07:16:13;97841.22;;;21.44;30.38
76605;BME280;65496;50.978;16.998;2023-03-11T07:18:44;97868.28;;;21.49;30.34
76605;BME280;65496;50.978;16.998;2023-03-11T07:21:12;97874.22;;;21.48;30.47
76605;BME280;65496;50.978;16.998;2023-03-11T07:23:39;97886.44;;;21.47;30.73
76605;BME280;65496;50.978;16.998;2023-03-11T07:26:08;97871.88;;;21.46;30.62
76605;BME280;65496;50.978;16.998;2023-03-11T07:28:35;97887.63;;;21.46;30.49
76605;BME280;65496;50.978;16.998;2023-03-11T07:31:09;97889.59;;;21.45;30.50
76605;BME280;65496;50.978;16.998;2023-03-11T07:33:35;97904.13;;;21.46;30.34
76605;BME280;65496;50.978;16.998;2023-03-11T07:36:07;97915.16;;;21.46;30.59
76605;BME280;65496;50.978;16.998;2023-03-11T07:38:34;97922.63;;;21.45;30.23
76605;BME280;65496;50.978;16.998;2023-03-11T07:41:00;97935.19;;;21.46;30.48
76605;BME280;65496;50.978;16.998;2023-03-11T07:43:26;97950.16;;;21.45;30.50
76605;BME280;65496;50.978;16.998;2023-03-11T07:46:05;97944.69;;;21.42;30.16
76605;BME280;65496;50.978;16.998;2023-03-11T07:48:33;97954.91;;;21.41;30.53
76605;BME280;65496;50.978;16.998;2023-03-11T07:51:04;97954.88;;;21.45;30.58
76605;BME280;65496;50.978;16.998;2023-03-11T07:53:30;97972.56;;;21.44;30.66
76605;BME280;65496;50.978;16.998;2023-03-11T07:55:57;97982.84;;;21.43;30.02
76605;BME280;65496;50.978;16.998;2023-03-11T07:58:24;97991.88;;;21.40;30.07
76605;BME280;65496;50.978;16.998;2023-03-11T08:00:50;98009.56;;;21.43;30.00
76605;BME280;65496;50.978;16.998;2023-03-11T08:03:17;98030.38;;;21.44;30.30
76605;BME280;65496;50.978;16.998;2023-03-11T08:05:43;98037.47;;;21.45;30.32
76605;BME280;65496;50.978;16.998;2023-03-11T08:08:09;98046.91;;;21.44;30.39
76605;BME280;65496;50.978;16.998;2023-03-11T08:10:36;98044.16;;;21.44;30.48
76605;BME280;65496;50.978;16.998;2023-03-11T08:13:02;98060.31;;;21.42;30.03
76605;BME280;65496;50.978;16.998;2023-03-11T08:15:28;98065.44;;;21.39;30.17
76605;BME280;65496;50.978;16.998;2023-03-11T08:17:54;98079.19;;;21.43;29.95
76605;BME280;65496;50.978;16.998;2023-03-11T08:20:20;98087.03;;;21.45;30.38
76605;BME280;65496;50.978;16.998;2023-03-11T08:22:46;98083.47;;;21.44;30.02
76605;BME280;65496;50.978;16.998;2023-03-11T08:25:12;98103.53;;;21.45;30.31
76605;BME280;65496;50.978;16.998;2023-03-11T08:27:39;98101.56;;;21.45;30.22
76605;BME280;65496;50.978;16.998;2023-03-11T08:30:07;98119.28;;;21.44;30.31
76605;BME280;65496;50.978;16.998;2023-03-11T08:32:33;98125.19;;;21.43;29.98
76605;BME280;65496;50.978;16.998;2023-03-11T08:34:59;98129.13;;;21.42;29.89
76605;BME280;65496;50.978;16.998;2023-03-11T08:37:25;98123.25;;;21.39;29.88
76605;BME280;65496;50.978;16.998;2023-03-11T08:39:51;98149.56;;;21.44;30.11
76605;BME280;65496;50.978;16.998;2023-03-11T08:42:18;98156.28;;;21.43;30.13
76605;BME280;65496;50.978;16.998;2023-03-11T08:44:44;98169.63;;;21.45;30.09
76605;BME280;65496;50.978;16.998;2023-03-11T08:47:10;98167.28;;;21.43;30.03
76605;BME280;65496;50.978;16.998;2023-03-11T08:49:36;98185.34;;;21.44;30.31
76605;BME280;65496;50.978;16.998;2023-03-11T08:52:03;98191.63;;;21.45;30.21
76605;BME280;65496;50.978;16.998;2023-03-11T08:54:30;98194.41;;;21.41;30.18
76605;BME280;65496;50.978;16.998;2023-03-11T08:56:56;98194.81;;;21.43;30.17
76605;BME280;65496;50.978;16.998;2023-03-11T08:59:28;98216.44;;;21.41;30.16
76605;BME280;65496;50.978;16.998;2023-03-11T09:01:55;98212.09;;;21.44;30.31
76605;BME280;65496;50.978;16.998;2023-03-11T09:04:20;98221.56;;;21.43;30.10
76605;BME280;65496;50.978;16.998;2023-03-11T09:06:47;98240.03;;;21.42;30.05
76605;BME280;65496;50.978;16.998;2023-03-11T09:09:16;98241.22;;;21.41;30.42
76605;BME280;65496;50.978;16.998;2023-03-11T09:11:48;98239.28;;;21.38;30.16
76605;BME280;65496;50.978;16.998;2023-03-11T09:14:14;98258.56;;;21.38;30.02
76605;BME280;65496;50.978;16.998;2023-03-11T09:16:40;98267.56;;;21.42;30.26
76605;BME280;65496;50.978;16.998;2023-03-11T09:19:06;98286.84;;;21.42;30.13
76605;BME280;65496;50.978;16.998;2023-03-11T09:21:33;98286.44;;;21.40;30.16
76605;BME280;65496;50.978;16.998;2023-03-11T09:24:00;98296.28;;;21.41;30.11
76605;BME280;65496;50.978;16.998;2023-03-11T09:26:26;98291.94;;;21.40;30.52
76605;BME280;65496;50.978;16.998;2023-03-11T09:28:52;98305.31;;;21.42;30.11
76605;BME280;65496;50.978;16.998;2023-03-11T09:31:19;98305.31;;;21.42;30.48
76605;BME280;65496;50.978;16.998;2023-03-11T09:33:45;98316.72;;;21.40;30.05
76605;BME280;65496;50.978;16.998;2023-03-11T09:36:16;98319.13;;;21.38;30.13
76605;BME280;65496;50.978;16.998;2023-03-11T09:38:43;98326.97;;;21.36;30.20
76605;BME280;65496;50.978;16.998;2023-03-11T09:43:53;98348.59;;;21.41;29.93
76605;BME280;65496;50.978;16.998;2023-03-11T09:54:52;98385.56;;;21.40;29.90
76605;BME280;65496;50.978;16.998;2023-03-11T09:57:32;98382.81;;;21.36;30.05
76605;BME280;65496;50.978;16.998;2023-03-11T10:00:00;98392.63;;;21.41;30.18
76605;BME280;65496;50.978;16.998;2023-03-11T10:02:30;98395.41;;;21.41;30.04
76605;BME280;65496;50.978;16.998;2023-03-11T10:05:00;98393.44;;;21.38;29.95
76605;BME280;65496;50.978;16.998;2023-03-11T10:07:38;98421.34;;;21.40;29.76
76605;BME280;65496;50.978;16.998;2023-03-11T10:10:06;98416.25;;;21.38;29.74
76605;BME280;65496;50.978;16.998;2023-03-11T10:29:41;98479.16;;;21.40;29.80
76605;BME280;65496;50.978;16.998;2023-03-11T10:32:24;98479.16;;;21.40;30.04
76605;BME280;65496;50.978;16.998;2023-03-11T10:35:22;98485.88;;;21.39;29.99
76605;BME280;65496;50.978;16.998;2023-03-11T10:38:04;98500.41;;;21.39;30.20
76605;BME280;65496;50.978;16.998;2023-03-11T10:40:38;98505.91;;;21.39;29.89
76605;BME280;65496;50.978;16.998;2023-03-11T10:43:28;98499.22;;;21.41;29.73
76605;BME280;65496;50.978;16.998;2023-03-11T10:45:57;98517.31;;;21.42;29.97
76605;BME280;65496;50.978;16.998;2023-03-11T10:48:24;98524.00;;;21.41;29.61
76605;BME280;65496;50.978;16.998;2023-03-11T10:51:02;98528.72;;;21.40;29.87
76605;BME280;65496;50.978;16.998;2023-03-11T10:53:45;98528.34;;;21.38;29.90
76605;BME280;65496;50.978;16.998;2023-03-11T10:56:33;98538.56;;;21.41;29.56
76605;BME280;65496;50.978;16.998;2023-03-11T10:59:01;98545.66;;;21.42;29.70
76605;BME280;65496;50.978;16.998;2023-03-11T11:01:28;98542.09;;;21.42;29.77
76605;BME280;65496;50.978;16.998;2023-03-11T11:03:56;98548.41;;;21.42;29.56
76605;BME280;65496;50.978;16.998;2023-03-11T11:09:16;98565.31;;;21.41;29.66
76605;BME280;65496;50.978;16.998;2023-03-11T11:12:08;98570.81;;;21.41;29.53
76605;BME280;65496;50.978;16.998;2023-03-11T11:17:30;98579.88;;;21.37;29.44
76605;BME280;65496;50.978;16.998;2023-03-11T11:19:58;98594.41;;;21.42;29.66
76605;BME280;65496;50.978;16.998;2023-03-11T11:22:27;98588.91;;;21.42;29.62
76605;BME280;65496;50.978;16.998;2023-03-11T11:24:54;98581.03;;;21.36;29.74
76605;BME280;65496;50.978;16.998;2023-03-11T11:27:23;98602.69;;;21.42;29.69
76605;BME280;65496;50.978;16.998;2023-03-11T11:30:14;98608.19;;;21.42;29.75
76605;BME280;65496;50.978;16.998;2023-03-11T11:32:41;98611.72;;;21.42;29.68
76605;BME280;65496;50.978;16.998;2023-03-11T11:35:19;98614.88;;;21.41;29.41
76605;BME280;65496;50.978;16.998;2023-03-11T11:37:51;98625.50;;;21.42;29.62
76605;BME280;65496;50.978;16.998;2023-03-11T11:40:26;98617.25;;;21.38;29.54
76605;BME280;65496;50.978;16.998;2023-03-11T11:43:02;98622.75;;;21.42;29.58
76605;BME280;65496;50.978;16.998;2023-03-11T11:45:37;98609.75;;;21.43;29.60
76605;BME280;65496;50.978;16.998;2023-03-11T11:48:25;98625.50;;;21.42;29.33
76605;BME280;65496;50.978;16.998;2023-03-11T11:50:59;98650.28;;;21.42;29.53
76605;BME280;65496;50.978;16.998;2023-03-11T11:56:01;98656.56;;;21.43;29.54
76605;BME280;65496;50.978;16.998;2023-03-11T11:58:29;98649.88;;;21.44;29.77
76605;BME280;65496;50.978;16.998;2023-03-11T12:15:48;98681.72;;;21.41;29.32
76605;BME280;65496;50.978;16.998;2023-03-11T12:18:22;98670.72;;;21.37;29.17
76605;BME280;65496;50.978;16.998;2023-03-11T12:20:54;98699.03;;;21.42;29.34
76605;BME280;65496;50.978;16.998;2023-03-11T12:26:20;98666.75;;;21.17;29.46
76605;BME280;65496;50.978;16.998;2023-03-11T12:29:14;98689.63;;;21.43;29.58
76605;BME280;65496;50.978;16.998;2023-03-11T12:31:46;98706.13;;;21.43;29.40
76605;BME280;65496;50.978;16.998;2023-03-11T12:34:14;98719.84;;;21.28;27.88
76605;BME280;65496;50.978;16.998;2023-03-11T12:36:45;98701.00;;;21.30;29.27
76605;BME280;65496;50.978;16.998;2023-03-11T12:39:31;98730.50;;;21.33;29.24
76605;BME280;65496;50.978;16.998;2023-03-11T12:42:15;98734.84;;;21.34;29.34
76605;BME280;65496;50.978;16.998;2023-03-11T12:44:41;98740.72;;;21.33;29.67
76605;BME280;65496;50.978;16.998;2023-03-11T12:49:39;98758.03;;;21.37;29.19
76605;BME280;65496;50.978;16.998;2023-03-11T12:54:46;98751.34;;;21.42;29.30
76605;BME280;65496;50.978;16.998;2023-03-11T13:07:50;98775.41;;;21.62;29.08
76605;BME280;65496;50.978;16.998;2023-03-11T13:18:41;98799.06;;;22.02;28.76
76605;BME280;65496;50.978;16.998;2023-03-11T13:21:37;98801.81;;;21.95;28.68
76605;BME280;65496;50.978;16.998;2023-03-11T13:35:10;98832.84;;;21.78;28.86
76605;BME280;65496;50.978;16.998;2023-03-11T13:40:44;98849.00;;;21.76;29.16
76605;BME280;65496;50.978;16.998;2023-03-11T13:43:24;98861.97;;;21.75;29.04
76605;BME280;65496;50.978;16.998;2023-03-11T13:46:04;98865.16;;;21.74;28.98
76605;BME280;65496;50.978;16.998;2023-03-11T13:48:40;98856.88;;;21.74;28.97
76605;BME280;65496;50.978;16.998;2023-03-11T13:51:34;98858.84;;;21.70;29.33
76605;BME280;65496;50.978;16.998;2023-03-11T13:56:44;98875.38;;;21.73;29.07
76605;BME280;65496;50.978;16.998;2023-03-11T13:59:21;98877.34;;;21.73;28.98
76605;BME280;65496;50.978;16.998;2023-03-11T14:02:00;98892.69;;;21.74;29.04
76605;BME280;65496;50.978;16.998;2023-03-11T14:04:31;98899.38;;;21.73;28.97
76605;BME280;65496;50.978;16.998;2023-03-11T14:06:59;98895.03;;;21.68;29.04
76605;BME280;65496;50.978;16.998;2023-03-11T14:09:26;98913.13;;;21.69;29.13
76605;BME280;65496;50.978;16.998;2023-03-11T14:11:54;98923.00;;;21.74;28.99
76605;BME280;65496;50.978;16.998;2023-03-11T14:14:40;98929.69;;;21.73;28.95
76605;BME280;65496;50.978;16.998;2023-03-11T14:17:13;98927.72;;;21.73;29.05
76605;BME280;65496;50.978;16.998;2023-03-11T14:19:40;98930.47;;;21.73;29.12
76605;BME280;65496;50.978;16.998;2023-03-11T14:22:08;98936.34;;;21.72;28.95
76605;BME280;65496;50.978;16.998;2023-03-11T14:24:35;98942.66;;;21.72;29.06
76605;BME280;65496;50.978;16.998;2023-03-11T14:27:05;98959.19;;;21.72;29.08
76605;BME280;65496;50.978;16.998;2023-03-11T14:29:37;98949.75;;;21.73;28.86
76605;BME280;65496;50.978;16.998;2023-03-11T14:32:32;98956.44;;;21.76;28.72
76605;BME280;65496;50.978;16.998;2023-03-11T14:34:59;98952.91;;;21.75;28.97
76605;BME280;65496;50.978;16.998;2023-03-11T14:37:34;98966.69;;;21.75;29.09
76605;BME280;65496;50.978;16.998;2023-03-11T14:40:01;98966.69;;;21.79;28.77